Time;durP1;ratioP1;P1;durP2;ratioP2;P2;SDS_P1;SDS_P2;PMS_P1;PMS_P2;Temp;Humidity;BMP_temperature;BMP_pressure;BME280_temperature;BME280_humidity;BME280_pressure;Samples;Min_cycle;Max_cycle;Signal;HPM_P1;HPM_P2
2022/12/02 00:02:43;;;;;;;36.23;17.47;;;;;;;1.98;96.26;101762.73;3601338;81;31612;-86
2022/12/02 00:07:48;;;;;;;36.27;18.43;;;;;;;1.97;96.13;101765.20;3595161;81;98563;-86
2022/12/02 00:12:50;;;;;;;37.05;17.40;;;;;;;1.97;96.44;101755.70;3601102;82;31154;-84
2022/12/02 00:17:51;;;;;;;34.20;16.57;;;;;;;1.96;96.50;101764.91;3598998;80;98565;-87
2022/12/02 00:22:51;;;;;;;31.17;15.53;;;;;;;1.94;96.52;101763.87;3611961;81;31680;-87
2022/12/02 00:27:52;;;;;;;30.50;14.97;;;;;;;1.91;96.50;101758.20;3609647;81;98618;-88
2022/12/02 00:32:53;;;;;;;30.70;15.30;;;;;;;1.85;96.05;101759.33;3613229;81;31548;-85
2022/12/02 00:37:54;;;;;;;30.27;13.93;;;;;;;1.85;95.99;101765.58;3605932;81;98704;-86
2022/12/02 00:46:30;;;;;;;27.60;13.87;;;;;;;1.83;95.59;101757.45;3615120;81;32374;-85
2022/12/02 00:47:58;;;;;;;30.67;15.17;;;;;;;1.79;95.49;101759.94;3580465;82;98740;-86
2022/12/02 00:52:59;;;;;;;29.80;15.07;;;;;;;1.81;95.71;101752.88;3587256;82;32266;-87
2022/12/02 00:58:00;;;;;;;33.17;16.90;;;;;;;1.83;95.77;101750.67;3596071;80;98310;-88
2022/12/02 01:03:01;;;;;;;33.77;14.93;;;;;;;1.78;95.20;101747.47;3606595;82;31671;-88
2022/12/02 01:08:02;;;;;;;37.97;17.73;;;;;;;1.79;95.46;101750.44;3598788;80;98556;-87
2022/12/02 01:13:02;;;;;;;38.67;16.97;;;;;;;1.78;95.20;101748.83;3585499;80;31627;-86
2022/12/02 01:18:03;;;;;;;34.23;15.87;;;;;;;1.72;94.61;101748.63;3645135;80;98476;-86
2022/12/02 01:23:04;;;;;;;35.80;16.97;;;;;;;1.71;94.79;101746.19;3688477;80;34869;-86
2022/12/02 01:28:05;;;;;;;31.67;15.73;;;;;;;1.69;94.81;101745.67;3675110;80;98481;-85
2022/12/02 01:33:06;;;;;;;37.83;18.13;;;;;;;1.71;94.95;101744.27;3692826;80;35330;-86
2022/12/02 01:38:08;;;;;;;41.00;16.83;;;;;;;1.70;94.90;101737.22;3676620;80;98393;-86
2022/12/02 01:43:10;;;;;;;39.37;17.70;;;;;;;1.68;94.82;101743.49;3686940;80;98573;-88
2022/12/02 01:48:11;;;;;;;40.23;18.17;;;;;;;1.66;94.64;101738.91;3689703;80;34864;-87
2022/12/02 01:53:12;;;;;;;46.33;20.43;;;;;;;1.65;94.62;101741.34;3678502;80;99026;-87
2022/12/02 01:58:13;;;;;;;43.37;19.43;;;;;;;1.57;93.92;101731.66;3685746;80;34875;-87
2022/12/02 02:03:14;;;;;;;39.97;19.57;;;;;;;1.57;94.13;101722.98;3683725;80;98811;-87
2022/12/02 02:08:15;;;;;;;40.75;18.98;;;;;;;1.56;94.17;101721.37;3685453;80;34842;-86
2022/12/02 02:13:17;;;;;;;46.00;19.60;;;;;;;1.56;94.34;101705.63;3678663;80;98896;-87
2022/12/02 02:18:17;;;;;;;43.40;20.53;;;;;;;1.53;94.18;101705.65;3665866;80;34899;-86
2022/12/02 02:23:24;;;;;;;46.57;21.90;;;;;;;1.51;94.36;101701.59;3634411;81;98680;-86
2022/12/02 02:28:26;;;;;;;50.45;21.73;;;;;;;1.49;94.33;101705.16;3645911;80;26521;-87
2022/12/02 02:33:30;;;;;;;41.42;20.40;;;;;;;1.48;94.26;101698.13;3630172;81;98845;-86
2022/12/02 02:38:31;;;;;;;48.13;20.37;;;;;;;1.45;94.32;101704.92;3639139;81;26307;-87
2022/12/02 02:43:34;;;;;;;43.95;19.75;;;;;;;1.49;94.61;101697.02;3635834;80;98849;-87
2022/12/02 02:48:36;;;;;;;46.77;21.68;;;;;;;1.50;94.76;101696.73;3641408;81;31419;-87
2022/12/02 02:53:38;;;;;;;47.83;20.75;;;;;;;1.49;94.78;101698.37;3634137;80;98633;-87
2022/12/02 02:58:39;;;;;;;50.00;23.18;;;;;;;1.46;94.96;101697.04;3641995;81;31538;-86
2022/12/02 03:03:44;;;;;;;54.40;23.80;;;;;;;1.40;95.11;101702.26;3631651;80;99025;-87
2022/12/02 03:08:47;;;;;;;51.00;22.90;;;;;;;1.39;95.48;101697.11;3638136;80;28821;-86
2022/12/02 03:13:50;;;;;;;53.33;21.55;;;;;;;1.41;95.91;101694.37;3631878;81;98953;-87
2022/12/02 03:18:53;;;;;;;62.10;25.07;;;;;;;1.40;96.24;101698.19;3469984;83;26178;-87
2022/12/02 03:23:57;;;;;;;55.97;23.30;;;;;;;1.39;96.05;101698.47;3555638;80;98877;-86
2022/12/02 03:29:01;;;;;;;50.17;21.20;;;;;;;1.39;96.12;101691.69;3656351;80;29740;-87
2022/12/02 03:34:02;;;;;;;47.83;21.60;;;;;;;1.34;96.16;101698.51;3646873;80;98914;-87
2022/12/02 03:39:04;;;;;;;50.47;20.43;;;;;;;1.31;96.51;101690.95;3644824;80;34905;-86
2022/12/02 03:44:06;;;;;;;51.58;21.95;;;;;;;1.23;96.26;101688.84;3634689;80;98403;-87
2022/12/02 03:49:07;;;;;;;48.70;20.02;;;;;;;1.21;96.67;101690.48;3652625;80;32296;-84
2022/12/02 03:54:08;;;;;;;47.53;20.73;;;;;;;1.18;96.98;101685.64;3644569;80;98740;-87
2022/12/02 03:59:12;;;;;;;50.20;20.73;;;;;;;1.19;97.38;101677.77;3658513;80;35356;-87
2022/12/02 04:04:13;;;;;;;47.17;20.17;;;;;;;1.18;97.21;101678.86;3642603;80;98681;-86
2022/12/02 04:09:14;;;;;;;55.63;22.43;;;;;;;1.13;97.33;101684.86;3651315;80;34929;-86
2022/12/02 04:14:15;;;;;;;48.73;20.97;;;;;;;1.07;97.07;101684.11;3638918;80;98816;-85
2022/12/02 04:19:15;;;;;;;44.10;20.60;;;;;;;1.02;97.16;101691.45;3663799;79;34864;-88
2022/12/02 04:24:16;;;;;;;44.80;20.63;;;;;;;0.98;96.86;101689.04;3678712;80;98522;-84
2022/12/02 04:29:17;;;;;;;44.93;20.60;;;;;;;0.94;96.46;101701.56;3668876;80;35464;-86
2022/12/02 04:34:18;;;;;;;46.97;19.40;;;;;;;0.87;96.31;101689.67;3660489;80;98795;-85
2022/12/02 04:39:18;;;;;;;46.25;17.73;;;;;;;0.81;95.77;101694.87;3672690;80;35436;-86
2022/12/02 04:44:19;;;;;;;43.70;19.13;;;;;;;0.81;95.89;101702.17;3662601;80;98796;-88
2022/12/02 04:49:20;;;;;;;39.50;19.43;;;;;;;0.77;95.45;101700.58;3668132;80;26728;-87
2022/12/02 04:54:21;;;;;;;45.47;20.57;;;;;;;0.68;94.93;101699.57;3665843;79;98975;-83
2022/12/02 04:59:22;;;;;;;44.93;19.67;;;;;;;0.64;94.83;101694.97;3664045;80;33060;-86
2022/12/02 05:04:22;;;;;;;45.87;22.23;;;;;;;0.60;94.71;101692.02;3663154;80;98792;-86
2022/12/02 05:09:23;;;;;;;46.67;20.57;;;;;;;0.58;94.65;101696.92;3670321;80;33058;-87
2022/12/02 05:14:24;;;;;;;40.97;20.73;;;;;;;0.59;94.75;101692.30;3656370;80;98906;-88
2022/12/02 05:19:25;;;;;;;40.95;21.02;;;;;;;0.59;94.91;101691.76;3652014;80;32445;-87
2022/12/02 05:24:26;;;;;;;45.63;22.57;;;;;;;0.61;95.23;101686.07;3610446;81;98744;-87
2022/12/02 05:29:26;;;;;;;44.80;22.20;;;;;;;0.57;95.17;101691.24;3616382;81;25946;-87
2022/12/02 05:34:27;;;;;;;48.10;21.60;;;;;;;0.56;94.95;101690.95;3609433;80;98852;-85
2022/12/02 05:39:28;;;;;;;46.70;23.20;;;;;;;0.53;95.08;101691.53;3612244;81;25839;-86
2022/12/02 05:44:30;;;;;;;39.90;19.87;;;;;;;0.48;94.92;101678.02;3603019;81;98847;-87
2022/12/02 05:49:34;;;;;;;44.87;21.67;;;;;;;0.44;95.03;101683.72;3615354;81;26242;-87
2022/12/02 05:54:34;;;;;;;44.65;20.70;;;;;;;0.46;95.35;101688.86;3606115;81;98827;-86
2022/12/02 05:59:35;;;;;;;45.37;20.33;;;;;;;0.49;95.20;101685.58;3614204;81;25926;-87
2022/12/02 06:04:36;;;;;;;46.63;21.07;;;;;;;0.46;95.10;101686.16;3598411;81;98965;-85
2022/12/02 06:09:37;;;;;;;36.80;18.57;;;;;;;0.40;95.06;101675.88;3604366;81;26361;-85
2022/12/02 06:14:38;;;;;;;44.13;19.37;;;;;;;0.39;95.19;101686.45;3605739;81;98886;-85
2022/12/02 06:19:52;;;;;;;44.63;21.97;;;;;;;0.35;94.79;101684.59;3622323;80;27123;-87
2022/12/02 06:24:55;;;;;;;42.38;19.98;;;;;;;0.29;95.01;101686.50;3652888;80;98738;-84
2022/12/02 06:30:01;;;;;;;39.30;19.02;;;;;;;0.24;94.89;101693.84;3661992;80;32121;-86
2022/12/02 06:35:06;;;;;;;40.40;19.33;;;;;;;0.21;94.45;101706.57;3657463;80;98896;-85
2022/12/02 06:40:28;;;;;;;42.53;20.50;;;;;;;0.15;94.72;101709.86;3663840;80;27665;-86
2022/12/02 06:45:33;;;;;;;41.93;21.43;;;;;;;0.18;94.69;101721.47;3612137;79;98942;-85
2022/12/02 06:50:41;;;;;;;50.23;26.02;;;;;;;0.13;94.31;101726.11;3653955;80;27622;-86
2022/12/02 06:55:42;;;;;;;44.33;20.77;;;;;;;0.03;94.16;101723.44;3640630;80;98901;-88
2022/12/02 07:00:43;;;;;;;40.30;20.43;;;;;;;-0.01;94.55;101738.59;3657516;80;26477;-86
2022/12/02 07:05:44;;;;;;;167.50;58.40;;;;;;;-0.04;94.49;101749.98;3659781;80;98862;-86
2022/12/02 07:10:45;;;;;;;93.87;34.07;;;;;;;-0.14;94.67;101740.53;3665669;80;26135;-87
2022/12/02 07:15:46;;;;;;;65.23;26.33;;;;;;;-0.22;95.14;101730.81;3653233;80;99398;-85
2022/12/02 07:20:48;;;;;;;117.03;43.75;;;;;;;-0.12;95.38;101747.03;3634405;80;26157;-87
2022/12/02 07:25:55;;;;;;;113.67;43.77;;;;;;;-0.14;95.16;101754.06;3589381;81;99268;-86
2022/12/02 07:31:26;;;;;;;45.90;22.10;;;;;;;-0.20;95.03;101758.66;3583413;82;28377;-86
2022/12/02 07:36:27;;;;;;;229.82;79.82;;;;;;;-0.22;95.02;101755.95;3618674;80;98676;-84
2022/12/02 07:41:27;;;;;;;49.57;25.63;;;;;;;-0.27;94.94;101753.81;3651186;80;26190;-85
2022/12/02 07:46:28;;;;;;;86.80;40.10;;;;;;;-0.29;94.96;101758.14;3640033;80;98993;-85
2022/12/02 07:51:29;;;;;;;81.87;30.20;;;;;;;-0.27;95.33;101749.76;3642325;80;26323;-84
2022/12/02 07:56:30;;;;;;;53.90;24.20;;;;;;;-0.23;95.28;101754.34;3642951;80;98955;-86
2022/12/02 08:01:31;;;;;;;49.63;22.53;;;;;;;-0.27;95.39;101752.73;3642235;80;26317;-86
2022/12/02 08:06:32;;;;;;;46.23;22.97;;;;;;;-0.23;95.36;101758.40;3641948;80;98966;-85
2022/12/02 08:11:32;;;;;;;42.67;21.57;;;;;;;-0.28;95.65;101754.34;3644827;80;25959;-83
2022/12/02 08:16:33;;;;;;;59.97;25.60;;;;;;;-0.29;95.76;101758.70;3639227;80;98460;-83
2022/12/02 08:21:34;;;;;;;48.80;21.50;;;;;;;-0.35;95.77;101752.47;3661210;80;32926;-86
2022/12/02 08:26:35;;;;;;;81.03;32.97;;;;;;;-0.37;95.99;101748.42;3676051;80;99538;-85
2022/12/02 08:31:36;;;;;;;56.60;24.43;;;;;;;-0.37;96.25;101749.23;3691397;80;33505;-86
2022/12/02 08:36:37;;;;;;;61.57;26.77;;;;;;;-0.37;96.24;101751.95;3678793;80;99008;-86
2022/12/02 08:41:38;;;;;;;57.33;25.77;;;;;;;-0.41;96.26;101756.27;3688618;80;32911;-85
2022/12/02 08:46:39;;;;;;;54.73;25.43;;;;;;;-0.44;96.49;101757.36;3674859;80;99248;-85
2022/12/02 08:51:40;;;;;;;77.97;28.30;;;;;;;-0.45;96.58;101765.20;3691203;80;32208;-84
2022/12/02 08:56:42;;;;;;;69.67;28.67;;;;;;;-0.44;96.48;101771.67;3675605;80;98804;-86
2022/12/02 09:01:43;;;;;;;61.33;22.50;;;;;;;-0.47;96.65;101774.38;3690249;80;32940;-85
2022/12/02 09:06:44;;;;;;;48.53;21.87;;;;;;;-0.41;96.83;101780.61;3679568;80;98864;-85
2022/12/02 09:11:45;;;;;;;59.97;26.60;;;;;;;-0.39;96.75;101777.08;3684572;80;31004;-86
2022/12/02 09:16:45;;;;;;;49.23;22.40;;;;;;;-0.37;96.45;101781.14;3677845;80;98932;-85
2022/12/02 09:21:46;;;;;;;64.57;25.50;;;;;;;-0.44;96.17;101780.34;3668546;80;31637;-86
2022/12/02 09:26:47;;;;;;;67.23;28.13;;;;;;;-0.48;96.44;101781.43;3635575;80;99297;-85
2022/12/02 09:31:48;;;;;;;74.33;30.73;;;;;;;-0.44;96.48;101779.78;3627953;80;31859;-85
2022/12/02 09:36:48;;;;;;;73.90;31.70;;;;;;;-0.47;96.37;101776.81;3630262;80;98749;-86
2022/12/02 09:41:49;;;;;;;74.07;31.27;;;;;;;-0.42;96.49;101776.81;3635689;80;31883;-85
2022/12/02 09:46:50;;;;;;;61.37;27.03;;;;;;;-0.43;96.28;101780.08;3623176;81;98975;-86
2022/12/02 09:51:55;;;;;;;60.53;26.93;;;;;;;-0.45;96.33;101775.46;3632932;81;30034;-87
2022/12/02 09:56:57;;;;;;;62.10;26.97;;;;;;;-0.44;96.24;101780.34;3626057;80;98894;-86
2022/12/02 10:01:58;;;;;;;61.88;28.32;;;;;;;-0.44;96.40;101770.32;3626589;80;33595;-88
2022/12/02 10:06:59;;;;;;;83.10;33.63;;;;;;;-0.40;96.38;101771.97;3623496;81;99167;-88
2022/12/02 10:12:00;;;;;;;63.97;28.77;;;;;;;-0.47;95.98;101767.35;3627803;81;31736;-87
2022/12/02 10:17:02;;;;;;;61.07;27.87;;;;;;;-0.49;95.99;101770.88;3612877;81;99205;-85
2022/12/02 10:22:19;;;;;;;54.67;26.83;;;;;;;-0.49;95.58;101767.64;3646695;79;31649;-86
2022/12/02 10:27:29;;;;;;;66.87;29.60;;;;;;;-0.47;95.75;101764.12;3664408;80;98801;-85
2022/12/02 10:32:30;;;;;;;66.57;29.87;;;;;;;-0.47;95.34;101759.23;3670670;80;31395;-86
2022/12/02 10:37:33;;;;;;;59.57;27.23;;;;;;;-0.52;95.44;101759.23;3660901;80;99242;-88
2022/12/02 10:42:34;;;;;;;60.53;27.97;;;;;;;-0.58;95.24;101754.39;3672568;80;29162;-85
2022/12/02 10:47:35;;;;;;;66.73;29.00;;;;;;;-0.54;95.67;101742.48;3657787;80;99218;-86
2022/12/02 10:52:42;;;;;;;71.10;31.82;;;;;;;-0.54;95.19;101734.38;3680406;80;31558;-84
2022/12/02 10:57:43;;;;;;;;;;;;;;;-0.59;95.02;101721.68;3666305;80;99370;-90
2022/12/02 11:02:48;;;;;;;66.37;30.70;;;;;;;-0.60;94.93;101732.20;3669647;80;31619;-86
2022/12/02 11:07:56;;;;;;;73.80;29.50;;;;;;;-0.68;94.61;101723.30;3673557;80;99362;-88
2022/12/02 11:13:02;;;;;;;72.67;29.42;;;;;;;-0.67;94.78;101724.13;3670872;80;33250;-86
2022/12/02 11:18:07;;;;;;;63.03;26.87;;;;;;;-0.69;94.78;101720.33;3659928;80;99256;-86
2022/12/02 11:23:22;;;;;;;63.77;31.40;;;;;;;-0.68;94.59;101721.13;3643157;80;99237;-86
2022/12/02 11:28:31;;;;;;;58.90;27.27;;;;;;;-0.67;94.45;101724.13;3626893;81;28239;-84
2022/12/02 11:34:00;;;;;;;63.70;28.42;;;;;;;-0.66;94.51;101723.83;3620485;81;99404;-85
2022/12/02 11:39:09;;;;;;;64.63;29.40;;;;;;;-0.65;94.02;101717.89;3622217;81;30155;-85
2022/12/02 11:44:26;;;;;;;62.70;29.32;;;;;;;-0.70;94.03;101717.89;3615346;81;99579;-84
2022/12/02 11:49:32;;;;;;;66.20;29.35;;;;;;;-0.72;93.94;101712.75;3620905;81;32691;-84
2022/12/02 11:54:37;;;;;;;66.60;29.23;;;;;;;-0.75;93.88;101701.67;3627258;80;99011;-85
2022/12/02 11:59:40;;;;;;;57.20;24.00;;;;;;;-0.74;93.99;101708.70;3618407;81;26437;-87
2022/12/02 12:04:43;;;;;;;59.77;25.95;;;;;;;-0.72;93.69;101710.61;3628066;80;99039;-86
2022/12/02 12:09:57;;;;;;;64.27;27.00;;;;;;;-0.74;93.75;101705.99;3633265;81;33974;-86
2022/12/02 12:15:04;;;;;;;54.42;26.33;;;;;;;-0.73;93.99;101707.64;3625244;81;99357;-84
2022/12/02 12:20:15;;;;;;;63.90;27.15;;;;;;;-0.69;93.95;101706.81;3617615;80;32464;-85
2022/12/02 12:25:42;;;;;;;62.17;25.13;;;;;;;-0.62;94.14;101710.05;3665261;80;99225;-84
2022/12/02 12:30:42;;;;;;;58.33;25.40;;;;;;;-0.65;93.64;101711.95;3679339;80;26242;-84
2022/12/02 12:35:43;;;;;;;65.80;27.23;;;;;;;-0.69;93.91;101713.58;3675578;80;99198;-85
2022/12/02 12:40:44;;;;;;;60.50;27.30;;;;;;;-0.65;94.41;101713.84;3681236;80;31569;-85
2022/12/02 12:45:45;;;;;;;63.97;27.00;;;;;;;-0.69;93.59;101709.52;3675134;80;99230;-85
2022/12/02 12:50:46;;;;;;;59.83;27.47;;;;;;;-0.68;93.28;101713.02;3680747;80;31621;-84
2022/12/02 12:55:47;;;;;;;62.87;26.63;;;;;;;-0.79;93.53;101711.39;3677495;80;99307;-84
2022/12/02 13:00:48;;;;;;;57.07;24.83;;;;;;;-0.77;93.88;101710.05;3683003;80;31762;-85
2022/12/02 13:05:49;;;;;;;57.77;26.67;;;;;;;-0.76;93.38;101709.52;3674087;80;99364;-85
2022/12/02 13:10:50;;;;;;;54.33;23.00;;;;;;;-0.79;93.28;101700.59;3686674;80;32331;-84
2022/12/02 13:15:51;;;;;;;59.30;27.13;;;;;;;-0.78;93.18;101703.03;3680094;80;99383;-84
2022/12/02 13:20:52;;;;;;;55.77;25.27;;;;;;;-0.77;93.09;101701.94;3685430;80;43382;-83
2022/12/02 13:25:53;;;;;;;56.35;25.88;;;;;;;-0.73;93.05;101706.29;3679342;80;99297;-84
2022/12/02 13:30:54;;;;;;;53.53;25.17;;;;;;;-0.80;92.44;101702.50;3686129;80;35038;-84
2022/12/02 13:35:55;;;;;;;58.37;25.03;;;;;;;-0.83;92.91;101711.69;3681356;79;99408;-85
2022/12/02 13:40:56;;;;;;;60.13;27.33;;;;;;;-0.80;92.88;101701.67;3679575;80;34831;-84
2022/12/02 13:45:57;;;;;;;55.37;25.37;;;;;;;-0.88;92.63;101696.27;3676151;80;99418;-85
2022/12/02 13:50:58;;;;;;;54.90;25.27;;;;;;;-0.89;93.36;101701.97;3686433;80;35413;-85
2022/12/02 13:55:59;;;;;;;60.17;26.17;;;;;;;-0.85;93.29;101709.25;3669938;80;99425;-86
2022/12/02 14:00:59;;;;;;;55.23;24.12;;;;;;;-0.88;93.07;101710.34;3683983;80;35541;-85
2022/12/02 14:06:00;;;;;;;52.83;25.23;;;;;;;-0.93;93.17;101713.03;3652125;80;99273;-85
2022/12/02 14:11:01;;;;;;;54.83;25.10;;;;;;;-0.94;92.91;101719.53;3688980;80;25810;-86
2022/12/02 14:16:02;;;;;;;51.73;23.10;;;;;;;-0.98;92.97;101723.31;3675541;80;99024;-84
2022/12/02 14:21:03;;;;;;;50.27;23.53;;;;;;;-0.99;93.08;101727.63;3650603;80;32520;-85
2022/12/02 14:26:06;;;;;;;53.70;24.13;;;;;;;-1.00;92.77;101724.66;3673416;80;99385;-85
2022/12/02 14:31:07;;;;;;;54.10;24.53;;;;;;;-0.98;93.10;101733.30;3683063;80;32531;-85
2022/12/02 14:36:08;;;;;;;51.13;25.03;;;;;;;-0.98;92.64;101732.77;3674608;80;99323;-84
2022/12/02 14:41:09;;;;;;;56.80;25.10;;;;;;;-0.99;92.55;101736.52;3686044;80;33380;-85
2022/12/02 14:46:09;;;;;;;55.50;26.10;;;;;;;-1.06;92.44;101736.52;3680436;80;99213;-84
2022/12/02 14:51:10;;;;;;;53.97;26.47;;;;;;;-1.06;92.56;101744.61;3683628;80;33227;-84
2022/12/02 14:56:11;;;;;;;51.90;24.70;;;;;;;-1.09;92.35;101745.96;3669911;80;99471;-85
2022/12/02 15:01:12;;;;;;;45.60;21.93;;;;;;;-1.12;92.45;101747.05;3670151;80;32527;-85
2022/12/02 15:06:13;;;;;;;51.25;24.92;;;;;;;-1.16;92.42;101751.38;3675386;80;99166;-84
2022/12/02 15:11:13;;;;;;;54.40;24.10;;;;;;;-1.16;92.59;101743.28;3674085;80;27413;-86
2022/12/02 15:16:14;;;;;;;49.00;25.40;;;;;;;-1.17;92.34;101745.68;3672396;80;99424;-86
2022/12/02 15:21:15;;;;;;;51.27;22.43;;;;;;;-1.18;92.52;101741.36;3676395;80;26173;-85
2022/12/02 15:26:16;;;;;;;46.57;21.37;;;;;;;-1.22;92.34;101738.39;3635074;80;99358;-85
2022/12/02 15:31:17;;;;;;;50.03;24.20;;;;;;;-1.30;91.94;101732.17;3625944;81;25926;-84
2022/12/02 15:36:18;;;;;;;44.87;22.57;;;;;;;-1.30;92.25;101744.33;3621309;80;99187;-82
2022/12/02 15:41:19;;;;;;;46.10;24.43;;;;;;;-1.33;91.83;101743.49;3627281;81;26395;-87
2022/12/02 15:46:22;;;;;;;50.63;23.60;;;;;;;-1.37;91.61;101750.50;3620028;80;99565;-85
2022/12/02 15:51:23;;;;;;;44.87;24.20;;;;;;;-1.39;91.72;101746.44;3606669;81;26810;-86
2022/12/02 15:56:24;;;;;;;49.33;24.10;;;;;;;-1.36;91.78;101745.40;3616434;80;99228;-86
2022/12/02 16:01:24;;;;;;;46.60;23.97;;;;;;;-1.36;91.78;101745.40;3626577;81;26385;-86
2022/12/02 16:06:25;;;;;;;49.83;24.37;;;;;;;-1.37;91.87;101749.14;3622816;81;99313;-86
2022/12/02 16:11:26;;;;;;;55.90;26.80;;;;;;;-1.31;91.85;101748.64;3629080;81;25968;-87
2022/12/02 16:16:27;;;;;;;48.33;24.27;;;;;;;-1.35;91.81;101738.91;3631230;81;99352;-87
2022/12/02 16:21:28;;;;;;;55.53;26.03;;;;;;;-1.33;91.65;101752.95;3630585;81;32844;-86
2022/12/02 16:26:28;;;;;;;44.43;23.10;;;;;;;-1.31;91.58;101756.18;3667119;80;98974;-87
2022/12/02 16:31:29;;;;;;;44.27;22.33;;;;;;;-1.36;91.25;101760.25;3670851;80;34375;-87
2022/12/02 16:36:30;;;;;;;45.40;22.33;;;;;;;-1.40;90.84;101767.25;3669358;80;98775;-87
2022/12/02 16:41:31;;;;;;;42.73;21.27;;;;;;;-1.42;90.93;101767.23;3683137;80;34204;-88
2022/12/02 16:46:32;;;;;;;52.43;27.00;;;;;;;-1.50;90.62;101763.69;3675598;80;99085;-87
2022/12/02 16:51:32;;;;;;;62.97;29.33;;;;;;;-1.51;90.71;101760.72;3675787;80;33964;-87
2022/12/02 16:56:33;;;;;;;58.60;30.27;;;;;;;-1.53;90.79;101763.67;3670877;80;98871;-86
2022/12/02 17:01:34;;;;;;;59.17;31.33;;;;;;;-1.49;90.90;101763.42;3686747;80;32171;-86
2022/12/02 17:06:35;;;;;;;61.80;31.30;;;;;;;-1.47;90.96;101766.70;3682033;80;98900;-88
2022/12/02 17:11:36;;;;;;;60.83;32.33;;;;;;;-1.48;90.93;101754.80;3679852;80;31665;-88
2022/12/02 17:16:37;;;;;;;57.63;30.50;;;;;;;-1.45;91.26;101758.30;3671885;80;98830;-86
2022/12/02 17:21:37;;;;;;;58.97;29.43;;;;;;;-1.41;91.25;101759.41;3683106;80;31729;-87
2022/12/02 17:26:38;;;;;;;53.50;27.90;;;;;;;-1.37;91.14;101751.84;3628730;80;98722;-87
2022/12/02 17:31:39;;;;;;;56.47;28.47;;;;;;;-1.38;91.21;101748.09;3617147;81;29926;-86
2022/12/02 17:36:40;;;;;;;59.33;29.10;;;;;;;-1.38;91.68;101755.63;3619085;80;98954;-87
2022/12/02 17:41:41;;;;;;;63.20;26.73;;;;;;;-1.36;91.90;101749.45;3630918;81;27437;-86
2022/12/02 17:46:43;;;;;;;59.53;29.67;;;;;;;-1.33;92.14;101754.82;3613726;80;99135;-88
2022/12/02 17:51:44;;;;;;;57.23;28.87;;;;;;;-1.38;92.10;101755.63;3629181;81;34836;-87
2022/12/02 17:56:45;;;;;;;63.10;28.13;;;;;;;-1.37;92.21;101753.20;3615081;80;98627;-89
2022/12/02 18:01:45;;;;;;;53.93;27.50;;;;;;;-1.35;92.41;101760.52;3626865;80;34899;-87
2022/12/02 18:06:46;;;;;;;54.23;26.50;;;;;;;-1.37;92.08;101764.55;3616516;80;98906;-86
2022/12/02 18:11:47;;;;;;;50.43;25.57;;;;;;;-1.37;92.23;101770.75;3633468;81;34815;-87
2022/12/02 18:16:48;;;;;;;57.47;29.00;;;;;;;-1.35;92.04;101769.14;3627986;80;99110;-87
2022/12/02 18:21:49;;;;;;;52.06;24.82;;;;;;;-1.37;92.13;101774.80;3633867;81;34773;-88
2022/12/02 18:26:49;;;;;;;56.37;27.37;;;;;;;-1.37;92.31;101778.84;3663414;80;99199;-88
2022/12/02 18:31:50;;;;;;;50.87;26.33;;;;;;;-1.35;92.18;101779.94;3687039;80;33780;-89
2022/12/02 18:36:51;;;;;;;53.58;25.45;;;;;;;-1.35;92.12;101783.99;3682874;80;99004;-89
2022/12/02 18:41:52;;;;;;;48.03;24.23;;;;;;;-1.40;92.02;101778.05;3686508;80;32469;-88
2022/12/02 18:46:53;;;;;;;52.87;25.50;;;;;;;-1.43;91.89;101779.91;3681137;80;98798;-88
2022/12/02 18:51:53;;;;;;;52.83;26.13;;;;;;;-1.40;92.26;101771.30;3679237;80;33556;-89
2022/12/02 18:56:54;;;;;;;52.00;26.13;;;;;;;-1.39;92.06;101766.16;3673144;80;99790;-90
2022/12/02 19:01:55;;;;;;;49.58;26.30;;;;;;;-1.43;91.76;101762.92;3681525;80;32253;-89
2022/12/02 19:06:56;;;;;;;52.53;25.27;;;;;;;-1.45;91.81;101763.70;3677256;80;98921;-87
2022/12/02 19:11:57;;;;;;;51.97;25.17;;;;;;;-1.44;91.91;101754.00;3687391;80;26498;-87
2022/12/02 19:16:58;;;;;;;47.07;21.37;;;;;;;-1.47;91.79;101760.47;3675069;80;99167;-88
2022/12/02 19:21:59;;;;;;;56.43;25.77;;;;;;;-1.50;91.71;101769.09;3687578;80;26524;-87
2022/12/02 19:27:00;;;;;;;52.60;24.77;;;;;;;-1.54;92.00;101768.80;3649708;79;99052;-87
2022/12/02 19:32:01;;;;;;;50.87;25.30;;;;;;;-1.51;91.98;101766.94;3633620;80;26201;-89
2022/12/02 19:37:02;;;;;;;56.13;26.97;;;;;;;-1.51;91.67;101769.64;3631516;81;98879;-88
2022/12/02 19:42:03;;;;;;;49.47;24.80;;;;;;;-1.49;91.95;101775.58;3641439;80;25971;-89
2022/12/02 19:47:04;;;;;;;50.20;25.00;;;;;;;-1.51;91.81;101769.64;3625143;80;99007;-89
2022/12/02 19:52:05;;;;;;;47.76;24.30;;;;;;;-1.54;91.76;101763.96;3606739;81;25880;-88
2022/12/02 19:57:05;;;;;;;50.00;23.00;;;;;;;-1.56;91.69;101759.34;3628408;80;99196;-88
2022/12/02 20:02:07;;;;;;;53.67;25.73;;;;;;;-1.59;91.96;101755.28;3624704;80;32938;-87
2022/12/02 20:07:08;;;;;;;56.83;25.73;;;;;;;-1.63;91.62;101764.19;3627257;81;99117;-86
2022/12/02 20:12:09;;;;;;;55.17;25.90;;;;;;;-1.64;91.99;101762.02;3624579;81;32937;-87
2022/12/02 20:17:10;;;;;;;52.43;23.93;;;;;;;-1.64;91.99;101769.31;3627059;80;98981;-87
2022/12/02 20:22:11;;;;;;;49.67;24.90;;;;;;;-1.62;92.32;101763.93;3633208;80;32855;-87
2022/12/02 20:27:12;;;;;;;49.83;23.70;;;;;;;-1.62;92.20;101770.67;3654112;80;99067;-87
2022/12/02 20:32:12;;;;;;;50.20;24.43;;;;;;;-1.63;92.28;101766.89;3681201;80;31235;-86
2022/12/02 20:37:13;;;;;;;51.50;24.70;;;;;;;-1.63;92.32;101762.31;3677839;80;99264;-88
2022/12/02 20:42:14;;;;;;;53.97;25.47;;;;;;;-1.65;92.36;101765.80;3682644;80;27731;-89
2022/12/02 20:47:15;;;;;;;60.10;26.60;;;;;;;-1.60;92.54;101763.12;3675504;80;99225;-87
2022/12/02 20:52:16;;;;;;;63.13;28.27;;;;;;;-1.58;92.45;101758.25;3682094;80;32562;-87
2022/12/02 20:57:16;;;;;;;52.73;26.07;;;;;;;-1.60;92.33;101762.33;3682106;80;99197;-89
2022/12/02 21:02:17;;;;;;;58.43;27.53;;;;;;;-1.64;92.55;101755.82;3682343;80;31716;-89
2022/12/02 21:07:18;;;;;;;54.97;25.93;;;;;;;-1.63;92.71;101750.16;3682439;80;98893;-86
2022/12/02 21:12:19;;;;;;;61.30;24.67;;;;;;;-1.61;92.66;101748.53;3683664;80;31362;-87
2022/12/02 21:17:20;;;;;;;54.90;26.12;;;;;;;-1.57;92.64;101752.33;3666463;80;99047;-88
2022/12/02 21:22:21;;;;;;;52.60;24.47;;;;;;;-1.55;93.00;101739.38;3681545;80;26812;-88
2022/12/02 21:27:22;;;;;;;49.77;24.43;;;;;;;-1.60;92.62;101759.63;3603440;80;99087;-89
2022/12/02 21:32:22;;;;;;;54.27;26.20;;;;;;;-1.64;92.77;101754.47;3620928;80;34960;-87
2022/12/02 21:37:23;;;;;;;52.37;24.90;;;;;;;-1.64;92.88;101751.22;3615032;80;98983;-87
2022/12/02 21:42:24;;;;;;;46.30;23.40;;;;;;;-1.68;92.71;101758.24;3621156;80;35453;-87
2022/12/02 21:47:25;;;;;;;45.83;23.97;;;;;;;-1.71;92.94;101753.91;3618039;80;98962;-88
2022/12/02 21:52:26;;;;;;;48.47;23.23;;;;;;;-1.68;92.87;101752.02;3616188;80;35481;-87
2022/12/02 21:57:26;;;;;;;48.07;22.20;;;;;;;-1.75;92.26;101756.30;3624620;80;98990;-89
2022/12/02 22:02:27;;;;;;;52.20;22.13;;;;;;;-1.82;92.30;101755.73;3624048;80;34850;-88
2022/12/02 22:07:40;;;;;;;51.80;22.97;;;;;;;-1.84;92.32;101755.73;3545664;80;99113;-87
2022/12/02 22:12:42;;;;;;;51.70;22.90;;;;;;;-1.84;92.36;101754.38;3532609;82;33163;-85
2022/12/02 22:17:43;;;;;;;49.03;22.62;;;;;;;-1.85;92.52;101753.58;3542927;81;98919;-88
2022/12/02 22:22:44;;;;;;;47.40;22.13;;;;;;;-1.88;92.58;101751.92;3557552;81;32539;-87
2022/12/02 22:27:45;;;;;;;50.80;23.87;;;;;;;-1.88;92.40;101750.05;3566666;80;98970;-88
2022/12/02 22:32:47;;;;;;;44.50;21.20;;;;;;;-1.96;92.46;101742.47;3612203;80;32428;-87
2022/12/02 22:37:48;;;;;;;50.07;21.93;;;;;;;-1.98;92.48;101740.55;3585496;80;98960;-87
2022/12/02 22:42:49;;;;;;;55.27;23.57;;;;;;;-1.98;92.74;101740.55;3615414;80;32833;-87
2022/12/02 22:47:50;;;;;;;52.33;22.70;;;;;;;-1.94;92.90;101740.31;3600321;80;98593;-88
2022/12/02 22:52:50;;;;;;;50.13;23.63;;;;;;;-1.94;93.04;101738.95;3619593;80;33058;-87
2022/12/02 22:57:51;;;;;;;49.43;24.20;;;;;;;-1.91;93.11;101734.92;3605243;80;98726;-88